sensor_id;sensor_type;location;lat;lon;timestamp;P1;durP1;ratioP1;P2;durP2;ratioP2
36789;SDS011;22740;52.182;8.780;2023-11-19T00:00:51;4.83;;;4.43;;
36789;SDS011;22740;52.182;8.780;2023-11-19T00:06:54;5.30;;;4.55;;
36789;SDS011;22740;52.182;8.780;2023-11-19T00:12:59;4.93;;;4.53;;
36789;SDS011;22740;52.182;8.780;2023-11-19T00:19:01;4.45;;;4.05;;
36789;SDS011;22740;52.182;8.780;2023-11-19T00:25:03;4.90;;;4.28;;
36789;SDS011;22740;52.182;8.780;2023-11-19T00:31:07;3.90;;;3.60;;
36789;SDS011;22740;52.182;8.780;2023-11-19T00:37:09;4.10;;;3.80;;
36789;SDS011;22740;52.182;8.780;2023-11-19T00:43:11;4.50;;;3.90;;
36789;SDS011;22740;52.182;8.780;2023-11-19T00:49:13;3.70;;;3.40;;
36789;SDS011;22740;52.182;8.780;2023-11-19T00:55:17;3.80;;;3.50;;
36789;SDS011;22740;52.182;8.780;2023-11-19T01:01:19;3.78;;;3.47;;
36789;SDS011;22740;52.182;8.780;2023-11-19T01:07:23;4.13;;;3.83;;
36789;SDS011;22740;52.182;8.780;2023-11-19T01:13:25;3.88;;;3.58;;
36789;SDS011;22740;52.182;8.780;2023-11-19T01:19:27;3.85;;;3.42;;
36789;SDS011;22740;52.182;8.780;2023-11-19T01:25:30;3.97;;;3.60;;
36789;SDS011;22740;52.182;8.780;2023-11-19T01:31:32;3.95;;;3.60;;
36789;SDS011;22740;52.182;8.780;2023-11-19T01:37:35;4.40;;;4.10;;
36789;SDS011;22740;52.182;8.780;2023-11-19T01:43:38;4.72;;;4.32;;
36789;SDS011;22740;52.182;8.780;2023-11-19T01:49:42;5.13;;;4.72;;
36789;SDS011;22740;52.182;8.780;2023-11-19T01:55:46;6.70;;;6.10;;
36789;SDS011;22740;52.182;8.780;2023-11-19T02:01:49;7.43;;;6.60;;
36789;SDS011;22740;52.182;8.780;2023-11-19T02:08:01;7.68;;;6.93;;
36789;SDS011;22740;52.182;8.780;2023-11-19T02:14:04;7.53;;;6.72;;
36789;SDS011;22740;52.182;8.780;2023-11-19T02:20:08;8.20;;;7.40;;
36789;SDS011;22740;52.182;8.780;2023-11-19T02:26:18;7.78;;;7.00;;
36789;SDS011;22740;52.182;8.780;2023-11-19T02:32:37;7.45;;;6.75;;
36789;SDS011;22740;52.182;8.780;2023-11-19T02:38:42;8.00;;;7.30;;
36789;SDS011;22740;52.182;8.780;2023-11-19T02:44:44;8.27;;;7.43;;
36789;SDS011;22740;52.182;8.780;2023-11-19T02:50:47;8.27;;;7.47;;
36789;SDS011;22740;52.182;8.780;2023-11-19T02:56:49;9.38;;;8.43;;
36789;SDS011;22740;52.182;8.780;2023-11-19T03:02:57;10.07;;;7.93;;
36789;SDS011;22740;52.182;8.780;2023-11-19T03:15:14;10.90;;;9.45;;
36789;SDS011;22740;52.182;8.780;2023-11-19T03:21:17;14.73;;;11.43;;
36789;SDS011;22740;52.182;8.780;2023-11-19T03:27:19;13.23;;;11.45;;
36789;SDS011;22740;52.182;8.780;2023-11-19T03:33:20;17.35;;;12.40;;
36789;SDS011;22740;52.182;8.780;2023-11-19T03:39:23;16.83;;;14.10;;
36789;SDS011;22740;52.182;8.780;2023-11-19T03:45:26;15.60;;;13.30;;
36789;SDS011;22740;52.182;8.780;2023-11-19T03:51:28;17.50;;;13.73;;
36789;SDS011;22740;52.182;8.780;2023-11-19T03:57:30;15.55;;;12.95;;
36789;SDS011;22740;52.182;8.780;2023-11-19T04:03:33;19.33;;;13.00;;
36789;SDS011;22740;52.182;8.780;2023-11-19T04:09:35;16.00;;;13.43;;
36789;SDS011;22740;52.182;8.780;2023-11-19T04:15:38;16.77;;;13.47;;
36789;SDS011;22740;52.182;8.780;2023-11-19T04:21:40;18.38;;;14.77;;
36789;SDS011;22740;52.182;8.780;2023-11-19T04:27:45;20.25;;;15.35;;
36789;SDS011;22740;52.182;8.780;2023-11-19T04:33:49;19.08;;;14.20;;
36789;SDS011;22740;52.182;8.780;2023-11-19T04:39:51;18.02;;;15.43;;
36789;SDS011;22740;52.182;8.780;2023-11-19T04:45:53;18.75;;;15.82;;
36789;SDS011;22740;52.182;8.780;2023-11-19T04:51:55;21.23;;;17.20;;
36789;SDS011;22740;52.182;8.780;2023-11-19T04:57:57;20.95;;;16.15;;
36789;SDS011;22740;52.182;8.780;2023-11-19T05:04:01;15.30;;;13.35;;
36789;SDS011;22740;52.182;8.780;2023-11-19T05:10:07;15.65;;;12.52;;
36789;SDS011;22740;52.182;8.780;2023-11-19T05:16:10;17.70;;;11.45;;
36789;SDS011;22740;52.182;8.780;2023-11-19T05:22:15;17.33;;;11.25;;
36789;SDS011;22740;52.182;8.780;2023-11-19T05:28:18;13.23;;;10.75;;
36789;SDS011;22740;52.182;8.780;2023-11-19T05:34:20;13.95;;;9.95;;
36789;SDS011;22740;52.182;8.780;2023-11-19T05:40:22;13.82;;;8.27;;
36789;SDS011;22740;52.182;8.780;2023-11-19T05:46:25;14.10;;;7.10;;
36789;SDS011;22740;52.182;8.780;2023-11-19T05:52:28;10.25;;;5.70;;
36789;SDS011;22740;52.182;8.780;2023-11-19T05:58:35;12.13;;;5.22;;
36789;SDS011;22740;52.182;8.780;2023-11-19T06:04:37;11.25;;;5.72;;
36789;SDS011;22740;52.182;8.780;2023-11-19T06:10:40;10.77;;;4.65;;
36789;SDS011;22740;52.182;8.780;2023-11-19T06:16:42;15.32;;;4.40;;
36789;SDS011;22740;52.182;8.780;2023-11-19T06:22:45;8.10;;;4.10;;
36789;SDS011;22740;52.182;8.780;2023-11-19T06:28:48;13.73;;;4.28;;
36789;SDS011;22740;52.182;8.780;2023-11-19T06:34:50;12.57;;;4.80;;
36789;SDS011;22740;52.182;8.780;2023-11-19T06:40:51;12.73;;;4.60;;
36789;SDS011;22740;52.182;8.780;2023-11-19T06:46:55;9.93;;;4.63;;
36789;SDS011;22740;52.182;8.780;2023-11-19T06:52:57;16.08;;;3.88;;
36789;SDS011;22740;52.182;8.780;2023-11-19T06:59:03;17.27;;;3.78;;
36789;SDS011;22740;52.182;8.780;2023-11-19T07:05:05;13.10;;;3.72;;
36789;SDS011;22740;52.182;8.780;2023-11-19T07:17:13;13.70;;;3.83;;
36789;SDS011;22740;52.182;8.780;2023-11-19T07:23:15;16.38;;;4.43;;
36789;SDS011;22740;52.182;8.780;2023-11-19T07:29:20;12.07;;;3.53;;
36789;SDS011;22740;52.182;8.780;2023-11-19T07:35:26;8.77;;;3.78;;
36789;SDS011;22740;52.182;8.780;2023-11-19T07:41:28;7.38;;;3.03;;
36789;SDS011;22740;52.182;8.780;2023-11-19T07:47:30;18.02;;;3.90;;
36789;SDS011;22740;52.182;8.780;2023-11-19T07:53:32;9.63;;;3.50;;
36789;SDS011;22740;52.182;8.780;2023-11-19T07:59:35;14.65;;;4.15;;
36789;SDS011;22740;52.182;8.780;2023-11-19T08:05:37;18.30;;;4.07;;
36789;SDS011;22740;52.182;8.780;2023-11-19T08:11:42;15.10;;;3.55;;
36789;SDS011;22740;52.182;8.780;2023-11-19T08:17:44;13.70;;;3.83;;
36789;SDS011;22740;52.182;8.780;2023-11-19T08:23:49;16.73;;;3.15;;
36789;SDS011;22740;52.182;8.780;2023-11-19T08:29:51;13.88;;;4.00;;
36789;SDS011;22740;52.182;8.780;2023-11-19T08:35:59;17.20;;;3.88;;
36789;SDS011;22740;52.182;8.780;2023-11-19T08:42:02;15.85;;;3.83;;
36789;SDS011;22740;52.182;8.780;2023-11-19T08:48:04;15.23;;;3.58;;
36789;SDS011;22740;52.182;8.780;2023-11-19T08:54:07;13.00;;;3.53;;
36789;SDS011;22740;52.182;8.780;2023-11-19T09:00:09;13.75;;;3.03;;
36789;SDS011;22740;52.182;8.780;2023-11-19T09:06:12;16.30;;;3.40;;
36789;SDS011;22740;52.182;8.780;2023-11-19T09:12:15;13.63;;;3.35;;
36789;SDS011;22740;52.182;8.780;2023-11-19T09:18:19;16.05;;;3.88;;
36789;SDS011;22740;52.182;8.780;2023-11-19T09:24:21;21.60;;;4.22;;
36789;SDS011;22740;52.182;8.780;2023-11-19T09:30:24;19.10;;;4.28;;
36789;SDS011;22740;52.182;8.780;2023-11-19T09:36:26;17.73;;;4.32;;
36789;SDS011;22740;52.182;8.780;2023-11-19T09:42:28;17.67;;;5.25;;
36789;SDS011;22740;52.182;8.780;2023-11-19T09:48:34;15.85;;;5.13;;
36789;SDS011;22740;52.182;8.780;2023-11-19T10:00:40;16.75;;;4.45;;
36789;SDS011;22740;52.182;8.780;2023-11-19T10:06:42;14.30;;;4.60;;
36789;SDS011;22740;52.182;8.780;2023-11-19T10:12:47;22.42;;;5.05;;
36789;SDS011;22740;52.182;8.780;2023-11-19T10:18:56;10.13;;;4.45;;
36789;SDS011;22740;52.182;8.780;2023-11-19T10:24:58;16.25;;;3.75;;
36789;SDS011;22740;52.182;8.780;2023-11-19T10:31:00;19.77;;;4.25;;
36789;SDS011;22740;52.182;8.780;2023-11-19T10:37:06;16.33;;;3.97;;
36789;SDS011;22740;52.182;8.780;2023-11-19T10:43:08;16.15;;;4.70;;
36789;SDS011;22740;52.182;8.780;2023-11-19T10:49:11;22.77;;;5.00;;
36789;SDS011;22740;52.182;8.780;2023-11-19T10:55:14;20.88;;;4.05;;
36789;SDS011;22740;52.182;8.780;2023-11-19T11:01:19;12.25;;;4.05;;
36789;SDS011;22740;52.182;8.780;2023-11-19T11:07:24;13.27;;;3.17;;
36789;SDS011;22740;52.182;8.780;2023-11-19T11:13:40;13.20;;;3.67;;
36789;SDS011;22740;52.182;8.780;2023-11-19T11:19:44;13.15;;;3.30;;
36789;SDS011;22740;52.182;8.780;2023-11-19T11:26:02;15.20;;;3.28;;
36789;SDS011;22740;52.182;8.780;2023-11-19T11:32:33;23.30;;;5.28;;
36789;SDS011;22740;52.182;8.780;2023-11-19T11:38:48;15.05;;;3.40;;
36789;SDS011;22740;52.182;8.780;2023-11-19T11:57:09;14.75;;;4.03;;
36789;SDS011;22740;52.182;8.780;2023-11-19T12:03:15;12.48;;;3.85;;
36789;SDS011;22740;52.182;8.780;2023-11-19T12:09:20;11.75;;;2.97;;
36789;SDS011;22740;52.182;8.780;2023-11-19T12:15:23;13.75;;;3.30;;
36789;SDS011;22740;52.182;8.780;2023-11-19T12:21:27;16.27;;;3.83;;
36789;SDS011;22740;52.182;8.780;2023-11-19T12:27:31;17.67;;;4.00;;
36789;SDS011;22740;52.182;8.780;2023-11-19T12:33:35;14.80;;;3.60;;
36789;SDS011;22740;52.182;8.780;2023-11-19T12:39:37;14.43;;;3.60;;
36789;SDS011;22740;52.182;8.780;2023-11-19T12:45:39;17.75;;;3.97;;
36789;SDS011;22740;52.182;8.780;2023-11-19T12:51:41;15.30;;;3.63;;
36789;SDS011;22740;52.182;8.780;2023-11-19T12:57:43;11.05;;;3.70;;
36789;SDS011;22740;52.182;8.780;2023-11-19T13:03:45;9.40;;;3.20;;
36789;SDS011;22740;52.182;8.780;2023-11-19T13:09:48;17.27;;;4.20;;
36789;SDS011;22740;52.182;8.780;2023-11-19T13:15:50;19.08;;;3.95;;
36789;SDS011;22740;52.182;8.780;2023-11-19T13:21:52;13.20;;;3.60;;
36789;SDS011;22740;52.182;8.780;2023-11-19T13:27:54;14.23;;;3.00;;
36789;SDS011;22740;52.182;8.780;2023-11-19T13:33:57;11.25;;;3.05;;
36789;SDS011;22740;52.182;8.780;2023-11-19T13:40:00;10.20;;;3.33;;
36789;SDS011;22740;52.182;8.780;2023-11-19T13:46:02;16.88;;;3.10;;
36789;SDS011;22740;52.182;8.780;2023-11-19T13:52:05;13.68;;;2.67;;
36789;SDS011;22740;52.182;8.780;2023-11-19T13:58:08;11.93;;;3.40;;
36789;SDS011;22740;52.182;8.780;2023-11-19T14:04:10;14.18;;;2.95;;
36789;SDS011;22740;52.182;8.780;2023-11-19T14:10:15;12.20;;;2.40;;
36789;SDS011;22740;52.182;8.780;2023-11-19T14:16:17;14.20;;;2.83;;
36789;SDS011;22740;52.182;8.780;2023-11-19T14:22:20;16.77;;;2.83;;
36789;SDS011;22740;52.182;8.780;2023-11-19T14:28:22;17.80;;;3.05;;
36789;SDS011;22740;52.182;8.780;2023-11-19T14:34:24;12.60;;;2.67;;
36789;SDS011;22740;52.182;8.780;2023-11-19T14:40:27;12.00;;;2.47;;
36789;SDS011;22740;52.182;8.780;2023-11-19T14:46:32;14.30;;;2.83;;
36789;SDS011;22740;52.182;8.780;2023-11-19T14:52:35;11.25;;;2.42;;
36789;SDS011;22740;52.182;8.780;2023-11-19T14:58:38;12.73;;;3.10;;
36789;SDS011;22740;52.182;8.780;2023-11-19T15:04:41;12.07;;;2.88;;
36789;SDS011;22740;52.182;8.780;2023-11-19T15:10:45;13.35;;;3.72;;
36789;SDS011;22740;52.182;8.780;2023-11-19T15:16:48;13.50;;;2.88;;
36789;SDS011;22740;52.182;8.780;2023-11-19T15:22:53;11.60;;;2.38;;
36789;SDS011;22740;52.182;8.780;2023-11-19T15:28:55;9.80;;;2.55;;
36789;SDS011;22740;52.182;8.780;2023-11-19T15:34:58;9.48;;;2.42;;
36789;SDS011;22740;52.182;8.780;2023-11-19T15:41:01;11.73;;;2.55;;
36789;SDS011;22740;52.182;8.780;2023-11-19T15:47:03;10.02;;;2.40;;
36789;SDS011;22740;52.182;8.780;2023-11-19T15:53:06;12.93;;;2.63;;
36789;SDS011;22740;52.182;8.780;2023-11-19T15:59:08;8.25;;;2.00;;
36789;SDS011;22740;52.182;8.780;2023-11-19T16:05:10;10.57;;;2.50;;
36789;SDS011;22740;52.182;8.780;2023-11-19T16:11:15;9.90;;;2.40;;
36789;SDS011;22740;52.182;8.780;2023-11-19T16:17:18;9.48;;;2.58;;
36789;SDS011;22740;52.182;8.780;2023-11-19T16:23:20;9.02;;;2.40;;
36789;SDS011;22740;52.182;8.780;2023-11-19T16:29:22;10.93;;;2.53;;
36789;SDS011;22740;52.182;8.780;2023-11-19T16:35:25;10.43;;;2.17;;
36789;SDS011;22740;52.182;8.780;2023-11-19T16:41:27;11.27;;;3.00;;
36789;SDS011;22740;52.182;8.780;2023-11-19T16:53:47;8.23;;;3.25;;
36789;SDS011;22740;52.182;8.780;2023-11-19T16:59:50;12.10;;;2.95;;
36789;SDS011;22740;52.182;8.780;2023-11-19T17:05:56;8.55;;;2.90;;
36789;SDS011;22740;52.182;8.780;2023-11-19T17:11:58;11.48;;;3.08;;
36789;SDS011;22740;52.182;8.780;2023-11-19T17:18:00;10.77;;;2.95;;
36789;SDS011;22740;52.182;8.780;2023-11-19T17:24:02;14.63;;;3.22;;
36789;SDS011;22740;52.182;8.780;2023-11-19T17:30:05;14.52;;;3.75;;
36789;SDS011;22740;52.182;8.780;2023-11-19T17:36:08;17.27;;;3.60;;
36789;SDS011;22740;52.182;8.780;2023-11-19T17:42:10;7.28;;;3.00;;
36789;SDS011;22740;52.182;8.780;2023-11-19T17:48:12;9.75;;;3.20;;
36789;SDS011;22740;52.182;8.780;2023-11-19T17:54:14;12.55;;;3.38;;
36789;SDS011;22740;52.182;8.780;2023-11-19T18:00:16;12.10;;;2.67;;
36789;SDS011;22740;52.182;8.780;2023-11-19T18:06:19;10.93;;;2.85;;
36789;SDS011;22740;52.182;8.780;2023-11-19T18:12:21;10.90;;;2.85;;
36789;SDS011;22740;52.182;8.780;2023-11-19T18:18:24;11.38;;;2.67;;
36789;SDS011;22740;52.182;8.780;2023-11-19T18:24:26;7.45;;;2.58;;
36789;SDS011;22740;52.182;8.780;2023-11-19T18:30:28;12.20;;;2.75;;
36789;SDS011;22740;52.182;8.780;2023-11-19T18:36:36;7.60;;;2.60;;
36789;SDS011;22740;52.182;8.780;2023-11-19T18:42:39;8.23;;;2.30;;
36789;SDS011;22740;52.182;8.780;2023-11-19T18:48:42;10.50;;;2.92;;
36789;SDS011;22740;52.182;8.780;2023-11-19T18:54:44;11.05;;;2.90;;
36789;SDS011;22740;52.182;8.780;2023-11-19T19:00:47;12.48;;;3.60;;
36789;SDS011;22740;52.182;8.780;2023-11-19T19:06:48;10.77;;;3.38;;
36789;SDS011;22740;52.182;8.780;2023-11-19T19:12:51;12.88;;;3.80;;
36789;SDS011;22740;52.182;8.780;2023-11-19T19:18:53;7.40;;;3.42;;
36789;SDS011;22740;52.182;8.780;2023-11-19T19:24:58;12.25;;;3.80;;
36789;SDS011;22740;52.182;8.780;2023-11-19T19:31:00;10.15;;;3.90;;
36789;SDS011;22740;52.182;8.780;2023-11-19T19:37:02;9.93;;;3.97;;
36789;SDS011;22740;52.182;8.780;2023-11-19T19:43:05;5.93;;;3.67;;
36789;SDS011;22740;52.182;8.780;2023-11-19T19:49:08;11.10;;;4.00;;
36789;SDS011;22740;52.182;8.780;2023-11-19T19:55:10;8.15;;;3.70;;
36789;SDS011;22740;52.182;8.780;2023-11-19T20:01:13;7.38;;;3.28;;
36789;SDS011;22740;52.182;8.780;2023-11-19T20:07:16;8.93;;;4.00;;
36789;SDS011;22740;52.182;8.780;2023-11-19T20:19:24;7.28;;;3.85;;
36789;SDS011;22740;52.182;8.780;2023-11-19T20:25:26;5.82;;;4.32;;
36789;SDS011;22740;52.182;8.780;2023-11-19T20:31:28;8.10;;;4.30;;
36789;SDS011;22740;52.182;8.780;2023-11-19T20:37:30;5.43;;;3.78;;
36789;SDS011;22740;52.182;8.780;2023-11-19T20:43:33;6.15;;;4.35;;
36789;SDS011;22740;52.182;8.780;2023-11-19T20:49:36;5.35;;;4.05;;
36789;SDS011;22740;52.182;8.780;2023-11-19T20:55:38;6.13;;;4.22;;
36789;SDS011;22740;52.182;8.780;2023-11-19T21:01:40;6.50;;;4.30;;
36789;SDS011;22740;52.182;8.780;2023-11-19T21:07:43;8.00;;;5.57;;
36789;SDS011;22740;52.182;8.780;2023-11-19T21:13:45;7.07;;;5.20;;
36789;SDS011;22740;52.182;8.780;2023-11-19T21:19:49;7.22;;;5.28;;
36789;SDS011;22740;52.182;8.780;2023-11-19T21:25:52;7.82;;;5.50;;
36789;SDS011;22740;52.182;8.780;2023-11-19T21:31:54;6.20;;;5.40;;
36789;SDS011;22740;52.182;8.780;2023-11-19T21:37:56;5.68;;;4.63;;
36789;SDS011;22740;52.182;8.780;2023-11-19T21:43:58;4.82;;;4.40;;
36789;SDS011;22740;52.182;8.780;2023-11-19T21:50:02;5.22;;;4.82;;
36789;SDS011;22740;52.182;8.780;2023-11-19T21:56:08;6.28;;;4.63;;
36789;SDS011;22740;52.182;8.780;2023-11-19T22:02:13;4.35;;;3.78;;
36789;SDS011;22740;52.182;8.780;2023-11-19T22:08:16;5.93;;;4.55;;
36789;SDS011;22740;52.182;8.780;2023-11-19T22:14:18;4.97;;;4.57;;
36789;SDS011;22740;52.182;8.780;2023-11-19T22:20:23;4.82;;;4.43;;
36789;SDS011;22740;52.182;8.780;2023-11-19T22:26:25;4.65;;;4.25;;
36789;SDS011;22740;52.182;8.780;2023-11-19T22:32:28;4.78;;;4.28;;
36789;SDS011;22740;52.182;8.780;2023-11-19T22:38:34;5.03;;;3.92;;
36789;SDS011;22740;52.182;8.780;2023-11-19T22:44:36;4.57;;;4.18;;
36789;SDS011;22740;52.182;8.780;2023-11-19T22:50:39;4.40;;;4.10;;
36789;SDS011;22740;52.182;8.780;2023-11-19T22:56:41;4.45;;;4.15;;
36789;SDS011;22740;52.182;8.780;2023-11-19T23:02:43;4.78;;;4.35;;
36789;SDS011;22740;52.182;8.780;2023-11-19T23:08:45;5.28;;;4.88;;
36789;SDS011;22740;52.182;8.780;2023-11-19T23:14:47;5.20;;;4.90;;
36789;SDS011;22740;52.182;8.780;2023-11-19T23:20:50;5.53;;;5.13;;
36789;SDS011;22740;52.182;8.780;2023-11-19T23:26:52;5.57;;;5.07;;
36789;SDS011;22740;52.182;8.780;2023-11-19T23:32:53;6.75;;;6.15;;
36789;SDS011;22740;52.182;8.780;2023-11-19T23:38:55;7.75;;;7.15;;
36789;SDS011;22740;52.182;8.780;2023-11-19T23:44:58;7.97;;;7.28;;
36789;SDS011;22740;52.182;8.780;2023-11-19T23:51:00;9.68;;;8.98;;
36789;SDS011;22740;52.182;8.780;2023-11-19T23:57:05;8.30;;;7.72;;
